Time;durP1;ratioP1;P1;durP2;ratioP2;P2;SDS_P1;SDS_P2;PMS_P1;PMS_P2;Temp;Humidity;BMP_temperature;BMP_pressure;BME280_temperature;BME280_humidity;BME280_pressure;Samples;Min_cycle;Max_cycle;Signal;HPM_P1;HPM_P2
2022/09/01 00:01:48;;;;;;;;;;;;;;;;;;6242432;23;19907;-71
2022/09/01 00:04:14;;;;;;;;;;;;;;;;;;6242242;23;19913;-71
2022/09/01 00:06:41;;;;;;;;;;;;;;;;;;6242333;23;20328;-70
2022/09/01 00:09:06;;;;;;;;;;;;;;;;;;6242364;23;19915;-70
2022/09/01 00:11:32;;;;;;;;;;;;;;;;;;6242067;23;20288;-70
2022/09/01 00:13:58;;;;;;;;;;;;;;;;;;6242291;23;19947;-70
2022/09/01 00:16:24;;;;;;;;;;;;;;;;;;6242242;23;20348;-70
2022/09/01 00:18:49;;;;;;;;;;;;;;;;;;6242115;23;19908;-70
2022/09/01 00:21:15;;;;;;;;;;;;;;;;;;6242333;23;20288;-71
2022/09/01 00:23:40;;;;;;;;;;;;;;;;;;6241681;23;19915;-70
2022/09/01 00:26:06;;;;;;;;;;;;;;;;;;6242248;23;20284;-71
2022/09/01 00:28:31;;;;;;;;;;;;;;;;;;6242836;23;19914;-70
2022/09/01 00:30:57;;;;;;;;;;;;;;;;;;6244123;23;19951;-70
2022/09/01 00:33:23;;;;;;;;;;;;;;;;;;6243931;22;19912;-70
2022/09/01 00:35:48;;;;;;;;;;;;;;;;;;6244246;23;19922;-71
2022/09/01 00:38:14;;;;;;;;;;;;;;;;;;6244145;23;19907;-70
2022/09/01 00:40:39;;;;;;;;;;;;;;;;;;6243876;23;19908;-70
2022/09/01 00:43:06;;;;;;;;;;;;;;;;;;6217167;23;19954;-71
2022/09/01 00:45:32;;;;;;;;;;;;;;;;;;6216931;23;19915;-71
2022/09/01 00:47:57;;;;;;;;;;;;;;;;;;6244159;23;19907;-69
2022/09/01 00:50:24;;;;;;;;;;;;;;;;;;6243956;23;20332;-70
2022/09/01 00:52:50;;;;;;;;;;;;;;;;;;6216797;23;20414;-71
2022/09/01 00:55:15;;;;;;;;;;;;;;;;;;6244088;23;19911;-71
2022/09/01 00:57:41;;;;;;;;;;;;;;;;;;6243506;23;19911;-71
2022/09/01 01:00:07;;;;;;;;;;;;;;;;;;6217245;23;20006;-69
2022/09/01 01:02:32;;;;;;;;;;;;;;;;;;6243556;23;19914;-71
2022/09/01 01:04:59;;;;;;;;;;;;;;;;;;6217276;23;20400;-69
2022/09/01 01:07:26;;;;;;;;;;;;;;;;;;6217046;23;19907;-71
2022/09/01 01:09:51;;;;;;;;;;;;;;;;;;6192030;23;19908;-71
2022/09/01 01:12:17;;;;;;;;;;;;;;;;;;6217027;23;19926;-70
2022/09/01 01:14:44;;;;;;;;;;;;;;;;;;6243258;23;20298;-71
2022/09/01 01:17:10;;;;;;;;;;;;;;;;;;6243992;23;20379;-69
2022/09/01 01:25:04;;;;;;;;;;;;;;;;;;6217967;23;19907;-72
2022/09/01 01:27:30;;;;;;;;;;;;;;;;;;6191956;23;19973;-72
2022/09/01 01:29:56;;;;;;;;;;;;;;;;;;6243991;23;19907;-71
2022/09/01 01:32:21;;;;;;;;;;;;;;;;;;6216696;23;20292;-69
2022/09/01 01:34:48;;;;;;;;;;;;;;;;;;6216575;23;20327;-71
2022/09/01 01:37:14;;;;;;;;;;;;;;;;;;6216982;23;19921;-70
2022/09/01 01:39:41;;;;;;;;;;;;;;;;;;6216293;23;19907;-70
2022/09/01 01:42:08;;;;;;;;;;;;;;;;;;6216775;23;19911;-71
2022/09/01 01:44:36;;;;;;;;;;;;;;;;;;6216393;23;19915;-71
2022/09/01 01:47:04;;;;;;;;;;;;;;;;;;6216886;23;20033;-69
2022/09/01 01:49:29;;;;;;;;;;;;;;;;;;6243114;23;19915;-70
2022/09/01 01:51:56;;;;;;;;;;;;;;;;;;6216703;23;20573;-71
2022/09/01 01:54:31;;;;;;;;;;;;;;;;;;6216417;23;19934;-71
2022/09/01 01:56:57;;;;;;;;;;;;;;;;;;6216686;23;20005;-69
2022/09/01 01:59:25;;;;;;;;;;;;;;;;;;6243145;23;19907;-70
2022/09/01 02:01:51;;;;;;;;;;;;;;;;;;6216409;23;20341;-70
2022/09/01 02:04:18;;;;;;;;;;;;;;;;;;6216557;23;19934;-71
2022/09/01 02:06:45;;;;;;;;;;;;;;;;;;6242886;23;19904;-70
2022/09/01 02:09:11;;;;;;;;;;;;;;;;;;6216555;23;20299;-72
2022/09/01 02:11:37;;;;;;;;;;;;;;;;;;6242954;23;19915;-69
2022/09/01 02:14:03;;;;;;;;;;;;;;;;;;6216326;23;20363;-70
2022/09/01 02:16:28;;;;;;;;;;;;;;;;;;6216470;23;19982;-70
2022/09/01 02:18:55;;;;;;;;;;;;;;;;;;6215998;23;19934;-71
2022/09/01 02:21:21;;;;;;;;;;;;;;;;;;6243201;23;19908;-70
2022/09/01 02:23:47;;;;;;;;;;;;;;;;;;6216124;23;20264;-70
2022/09/01 02:26:14;;;;;;;;;;;;;;;;;;6216588;23;19907;-70
2022/09/01 02:28:41;;;;;;;;;;;;;;;;;;6242692;23;19916;-69
2022/09/01 02:31:07;;;;;;;;;;;;;;;;;;6242913;22;20162;-70
2022/09/01 02:33:33;;;;;;;;;;;;;;;;;;6215802;23;19966;-69
2022/09/01 02:35:59;;;;;;;;;;;;;;;;;;6216343;23;19908;-70
2022/09/01 02:38:28;;;;;;;;;;;;;;;;;;6242889;23;19907;-70
2022/09/01 02:40:55;;;;;;;;;;;;;;;;;;6191082;23;20332;-69
2022/09/01 02:43:21;;;;;;;;;;;;;;;;;;6242834;23;19915;-69
2022/09/01 02:45:50;;;;;;;;;;;;;;;;;;6215954;23;19912;-70
2022/09/01 02:48:17;;;;;;;;;;;;;;;;;;6216182;23;19953;-70
2022/09/01 02:50:42;;;;;;;;;;;;;;;;;;6215375;23;20337;-70
2022/09/01 02:53:10;;;;;;;;;;;;;;;;;;6216195;23;20364;-70
2022/09/01 02:55:36;;;;;;;;;;;;;;;;;;6242552;23;19914;-71
2022/09/01 02:58:02;;;;;;;;;;;;;;;;;;6191033;23;19903;-70
2022/09/01 03:00:32;;;;;;;;;;;;;;;;;;6190932;23;20344;-70
2022/09/01 03:02:58;;;;;;;;;;;;;;;;;;6215707;23;19907;-70
2022/09/01 03:05:27;;;;;;;;;;;;;;;;;;6216149;23;19914;-70
2022/09/01 03:07:55;;;;;;;;;;;;;;;;;;6215828;23;19907;-70
2022/09/01 03:10:21;;;;;;;;;;;;;;;;;;6216328;23;20385;-70
2022/09/01 03:12:46;;;;;;;;;;;;;;;;;;6190495;23;19923;-70
2022/09/01 03:15:12;;;;;;;;;;;;;;;;;;6215953;23;20022;-69
2022/09/01 03:17:37;;;;;;;;;;;;;;;;;;6215572;23;19907;-70
2022/09/01 03:20:03;;;;;;;;;;;;;;;;;;6190710;23;19915;-72
2022/09/01 03:22:29;;;;;;;;;;;;;;;;;;6215979;23;19908;-71
2022/09/01 03:24:55;;;;;;;;;;;;;;;;;;6215478;23;19911;-70
2022/09/01 03:27:20;;;;;;;;;;;;;;;;;;6242695;23;19908;-70
2022/09/01 03:29:46;;;;;;;;;;;;;;;;;;6242254;23;19907;-71
2022/09/01 03:32:11;;;;;;;;;;;;;;;;;;6242809;22;19924;-72
2022/09/01 03:34:38;;;;;;;;;;;;;;;;;;6242091;23;19915;-71
2022/09/01 03:37:06;;;;;;;;;;;;;;;;;;6242539;23;19982;-70
2022/09/01 03:39:32;;;;;;;;;;;;;;;;;;6190164;23;19908;-70
2022/09/01 03:41:58;;;;;;;;;;;;;;;;;;6215062;23;19930;-70
2022/09/01 03:44:24;;;;;;;;;;;;;;;;;;6215372;23;19916;-70
2022/09/01 03:46:51;;;;;;;;;;;;;;;;;;6242376;23;19978;-70
2022/09/01 03:49:25;;;;;;;;;;;;;;;;;;6215348;23;19908;-70
2022/09/01 03:51:56;;;;;;;;;;;;;;;;;;6190272;23;19993;-71
2022/09/01 03:54:26;;;;;;;;;;;;;;;;;;6215577;23;19907;-71
2022/09/01 03:56:53;;;;;;;;;;;;;;;;;;6215188;23;19907;-71
2022/09/01 03:59:21;;;;;;;;;;;;;;;;;;6241338;23;19913;-71
2022/09/01 04:01:47;;;;;;;;;;;;;;;;;;6189704;23;19953;-72
2022/09/01 04:04:13;;;;;;;;;;;;;;;;;;6215100;23;19908;-71
2022/09/01 04:06:40;;;;;;;;;;;;;;;;;;6214668;23;19915;-72
2022/09/01 04:09:05;;;;;;;;;;;;;;;;;;6214959;23;19907;-71
2022/09/01 04:11:32;;;;;;;;;;;;;;;;;;6241914;23;19965;-71
2022/09/01 04:13:57;;;;;;;;;;;;;;;;;;6241035;23;19953;-72
2022/09/01 04:19:24;;;;;;;;;;;;;;;;;;6215162;23;19961;-71
2022/09/01 04:21:50;;;;;;;;;;;;;;;;;;6215419;23;19907;-72
2022/09/01 04:24:17;;;;;;;;;;;;;;;;;;6214991;23;19907;-72
2022/09/01 04:26:45;;;;;;;;;;;;;;;;;;6215299;23;19907;-72
2022/09/01 04:29:11;;;;;;;;;;;;;;;;;;6215487;23;19907;-72
2022/09/01 04:31:38;;;;;;;;;;;;;;;;;;6215458;23;19915;-72
2022/09/01 04:34:12;;;;;;;;;;;;;;;;;;6215536;23;19908;-72
2022/09/01 04:36:39;;;;;;;;;;;;;;;;;;6215197;23;19914;-73
2022/09/01 04:39:07;;;;;;;;;;;;;;;;;;6213861;23;20252;-72
2022/09/01 04:41:33;;;;;;;;;;;;;;;;;;6240970;23;19938;-71
2022/09/01 04:44:03;;;;;;;;;;;;;;;;;;6214755;23;19916;-71
2022/09/01 04:46:33;;;;;;;;;;;;;;;;;;6215746;23;20303;-71
2022/09/01 04:49:00;;;;;;;;;;;;;;;;;;6215187;23;19908;-71
2022/09/01 04:51:29;;;;;;;;;;;;;;;;;;6215330;23;19911;-71
2022/09/01 04:53:56;;;;;;;;;;;;;;;;;;6240924;23;19908;-71
2022/09/01 04:56:22;;;;;;;;;;;;;;;;;;6215695;23;19931;-74
2022/09/01 04:59:09;;;;;;;;;;;;;;;;;;6215423;23;19987;-73
2022/09/01 05:01:42;;;;;;;;;;;;;;;;;;6215499;23;20302;-72
2022/09/01 05:04:11;;;;;;;;;;;;;;;;;;6215886;23;19914;-72
2022/09/01 05:06:41;;;;;;;;;;;;;;;;;;6215584;23;19908;-73
2022/09/01 05:09:08;;;;;;;;;;;;;;;;;;6215038;23;19954;-73
2022/09/01 05:11:51;;;;;;;;;;;;;;;;;;6214884;23;19946;-72
2022/09/01 05:14:28;;;;;;;;;;;;;;;;;;6215884;23;19911;-72
2022/09/01 05:16:55;;;;;;;;;;;;;;;;;;6215940;23;19969;-72
2022/09/01 05:19:24;;;;;;;;;;;;;;;;;;6217187;23;19907;-73
2022/09/01 05:21:53;;;;;;;;;;;;;;;;;;6216626;23;19907;-73
2022/09/01 05:24:20;;;;;;;;;;;;;;;;;;6217025;23;20217;-75
2022/09/01 05:26:49;;;;;;;;;;;;;;;;;;6215262;23;19915;-73
2022/09/01 05:29:16;;;;;;;;;;;;;;;;;;6242443;23;19908;-73
2022/09/01 05:31:42;;;;;;;;;;;;;;;;;;6215185;23;20295;-73
2022/09/01 05:34:08;;;;;;;;;;;;;;;;;;6215883;23;19907;-73
2022/09/01 05:36:35;;;;;;;;;;;;;;;;;;6216726;23;19914;-73
2022/09/01 05:39:01;;;;;;;;;;;;;;;;;;6216359;23;19907;-72
2022/09/01 05:41:27;;;;;;;;;;;;;;;;;;6216710;23;19907;-71
2022/09/01 05:43:53;;;;;;;;;;;;;;;;;;6242882;23;19922;-71
2022/09/01 05:46:19;;;;;;;;;;;;;;;;;;6216973;23;20360;-72
2022/09/01 05:48:44;;;;;;;;;;;;;;;;;;6216139;23;19931;-71
2022/09/01 05:51:10;;;;;;;;;;;;;;;;;;6242856;23;19911;-73
2022/09/01 05:53:36;;;;;;;;;;;;;;;;;;6216400;23;20001;-72
2022/09/01 05:56:05;;;;;;;;;;;;;;;;;;6215733;23;20390;-72
2022/09/01 05:58:31;;;;;;;;;;;;;;;;;;6215707;23;19919;-72
2022/09/01 06:00:57;;;;;;;;;;;;;;;;;;6215392;23;19981;-72
2022/09/01 06:03:25;;;;;;;;;;;;;;;;;;6216314;23;19915;-72
2022/09/01 06:05:51;;;;;;;;;;;;;;;;;;6215196;23;19911;-71
2022/09/01 06:08:17;;;;;;;;;;;;;;;;;;6215275;23;19990;-72
2022/09/01 06:10:43;;;;;;;;;;;;;;;;;;6215619;23;19914;-71
2022/09/01 06:13:09;;;;;;;;;;;;;;;;;;6216305;23;20333;-71
2022/09/01 06:15:35;;;;;;;;;;;;;;;;;;6243254;23;19908;-71
2022/09/01 06:18:01;;;;;;;;;;;;;;;;;;6215750;23;20363;-72
2022/09/01 06:20:28;;;;;;;;;;;;;;;;;;6215967;23;19907;-70
2022/09/01 06:22:54;;;;;;;;;;;;;;;;;;6215848;23;19990;-73
2022/09/01 06:25:20;;;;;;;;;;;;;;;;;;6242177;23;19949;-71
2022/09/01 06:27:47;;;;;;;;;;;;;;;;;;6214243;23;20398;-72
2022/09/01 06:30:35;;;;;;;;;;;;;;;;;;6215120;23;20229;-71
2022/09/01 06:33:08;;;;;;;;;;;;;;;;;;6214485;23;19915;-72
2022/09/01 06:35:34;;;;;;;;;;;;;;;;;;6214690;23;19907;-71
2022/09/01 06:38:00;;;;;;;;;;;;;;;;;;6241255;23;19908;-71
2022/09/01 06:40:43;;;;;;;;;;;;;;;;;;6214281;23;19907;-71
2022/09/01 06:43:12;;;;;;;;;;;;;;;;;;6214302;23;19915;-72
2022/09/01 06:45:40;;;;;;;;;;;;;;;;;;6214550;23;19907;-72
2022/09/01 06:48:06;;;;;;;;;;;;;;;;;;6214531;23;19942;-73
2022/09/01 06:50:33;;;;;;;;;;;;;;;;;;6190133;23;19907;-71
2022/09/01 06:53:09;;;;;;;;;;;;;;;;;;6242379;23;19969;-73
2022/09/01 06:55:36;;;;;;;;;;;;;;;;;;6215758;23;19990;-72
2022/09/01 06:58:04;;;;;;;;;;;;;;;;;;6214750;23;19977;-73
2022/09/01 07:00:29;;;;;;;;;;;;;;;;;;6242230;23;19908;-72
2022/09/01 07:02:55;;;;;;;;;;;;;;;;;;6215548;23;20236;-73
2022/09/01 07:05:48;;;;;;;;;;;;;;;;;;6215976;23;19908;-73
2022/09/01 07:08:16;;;;;;;;;;;;;;;;;;6215128;23;19986;-73
2022/09/01 07:10:56;;;;;;;;;;;;;;;;;;6214661;23;19909;-74
2022/09/01 07:13:22;;;;;;;;;;;;;;;;;;6190365;23;20320;-73
2022/09/01 07:15:48;;;;;;;;;;;;;;;;;;6188669;23;20296;-73
2022/09/01 07:18:16;;;;;;;;;;;;;;;;;;6190346;23;19960;-72
2022/09/01 07:20:41;;;;;;;;;;;;;;;;;;6246870;23;19938;-72
2022/09/01 07:23:07;;;;;;;;;;;;;;;;;;6248379;23;19912;-73
2022/09/01 07:25:37;;;;;;;;;;;;;;;;;;6218158;23;20340;-72
2022/09/01 07:28:07;;;;;;;;;;;;;;;;;;6215966;23;19994;-73
2022/09/01 07:30:34;;;;;;;;;;;;;;;;;;6215730;23;19931;-73
2022/09/01 07:33:00;;;;;;;;;;;;;;;;;;6215586;23;19919;-73
2022/09/01 07:35:26;;;;;;;;;;;;;;;;;;6216123;23;19914;-72
2022/09/01 07:37:51;;;;;;;;;;;;;;;;;;6212703;23;19911;-73
2022/09/01 07:40:18;;;;;;;;;;;;;;;;;;6214337;23;19999;-73
2022/09/01 07:43:06;;;;;;;;;;;;;;;;;;6215247;23;20260;-72
2022/09/01 07:46:11;;;;;;;;;;;;;;;;;;6191936;23;19953;-73
2022/09/01 07:48:36;;;;;;;;;;;;;;;;;;6215193;23;19911;-73
2022/09/01 07:51:02;;;;;;;;;;;;;;;;;;6214643;23;19991;-73
2022/09/01 07:53:30;;;;;;;;;;;;;;;;;;6215175;23;19919;-72
2022/09/01 07:55:56;;;;;;;;;;;;;;;;;;6214871;23;19914;-71
2022/09/01 07:58:22;;;;;;;;;;;;;;;;;;6215245;23;20260;-72
2022/09/01 08:00:52;;;;;;;;;;;;;;;;;;6212901;23;19907;-75
2022/09/01 08:03:17;;;;;;;;;;;;;;;;;;6212944;23;19935;-73
2022/09/01 08:05:44;;;;;;;;;;;;;;;;;;6188321;23;19947;-73
2022/09/01 08:08:09;;;;;;;;;;;;;;;;;;6213104;23;20225;-73
2022/09/01 08:10:35;;;;;;;;;;;;;;;;;;6188083;23;19904;-72
2022/09/01 08:13:00;;;;;;;;;;;;;;;;;;6213268;23;19938;-71
2022/09/01 08:15:26;;;;;;;;;;;;;;;;;;6213222;23;19914;-73
2022/09/01 08:17:52;;;;;;;;;;;;;;;;;;6188260;23;19914;-74
2022/09/01 08:20:21;;;;;;;;;;;;;;;;;;6213020;23;19914;-73
2022/09/01 08:22:49;;;;;;;;;;;;;;;;;;6210319;23;19914;-73
2022/09/01 08:25:41;;;;;;;;;;;;;;;;;;6230757;23;19903;-73
2022/09/01 08:28:07;;;;;;;;;;;;;;;;;;6211772;23;19907;-73
2022/09/01 08:30:32;;;;;;;;;;;;;;;;;;6211649;23;19911;-71
2022/09/01 08:32:59;;;;;;;;;;;;;;;;;;6211447;23;19922;-73
2022/09/01 08:35:28;;;;;;;;;;;;;;;;;;6182853;23;19908;-74
2022/09/01 08:37:55;;;;;;;;;;;;;;;;;;6236265;23;20038;-75
2022/09/01 08:40:22;;;;;;;;;;;;;;;;;;6208579;23;19958;-73
2022/09/01 08:42:48;;;;;;;;;;;;;;;;;;6210047;23;19964;-73
2022/09/01 08:45:14;;;;;;;;;;;;;;;;;;6212166;23;20324;-74
2022/09/01 08:47:39;;;;;;;;;;;;;;;;;;6212028;23;19946;-74
2022/09/01 08:50:05;;;;;;;;;;;;;;;;;;6187724;23;19907;-73
2022/09/01 08:52:57;;;;;;;;;;;;;;;;;;6236621;23;19916;-73
2022/09/01 08:55:26;;;;;;;;;;;;;;;;;;6215098;23;19994;-74
2022/09/01 08:57:54;;;;;;;;;;;;;;;;;;6214331;23;19907;-76
2022/09/01 09:00:22;;;;;;;;;;;;;;;;;;6241559;23;20002;-75
2022/09/01 09:02:48;;;;;;;;;;;;;;;;;;6241839;23;19938;-73
2022/09/01 09:05:14;;;;;;;;;;;;;;;;;;6241607;23;20240;-73
2022/09/01 09:07:40;;;;;;;;;;;;;;;;;;6241202;23;19914;-73
2022/09/01 09:10:06;;;;;;;;;;;;;;;;;;6240929;23;19961;-72
2022/09/01 09:12:31;;;;;;;;;;;;;;;;;;6239676;23;19923;-73
2022/09/01 09:14:57;;;;;;;;;;;;;;;;;;6240530;23;19915;-73
2022/09/01 09:17:24;;;;;;;;;;;;;;;;;;6241416;23;19911;-73
2022/09/01 09:19:49;;;;;;;;;;;;;;;;;;6214729;23;20002;-73
2022/09/01 09:22:15;;;;;;;;;;;;;;;;;;6241323;23;19961;-73
2022/09/01 09:24:47;;;;;;;;;;;;;;;;;;6239996;23;19911;-73
2022/09/01 09:27:12;;;;;;;;;;;;;;;;;;6241321;23;19939;-72
2022/09/01 09:29:38;;;;;;;;;;;;;;;;;;6241355;23;19908;-73
2022/09/01 09:32:04;;;;;;;;;;;;;;;;;;6240991;22;20002;-73
2022/09/01 09:34:31;;;;;;;;;;;;;;;;;;6241615;23;20403;-74
2022/09/01 09:36:57;;;;;;;;;;;;;;;;;;6241751;23;19908;-73
2022/09/01 09:39:22;;;;;;;;;;;;;;;;;;6241465;23;20367;-73
2022/09/01 09:41:48;;;;;;;;;;;;;;;;;;6214973;23;20430;-73
2022/09/01 09:44:13;;;;;;;;;;;;;;;;;;6241295;23;19922;-73
2022/09/01 09:46:39;;;;;;;;;;;;;;;;;;6215049;23;19911;-73
2022/09/01 09:49:05;;;;;;;;;;;;;;;;;;6241371;23;19908;-73
2022/09/01 09:51:31;;;;;;;;;;;;;;;;;;6241268;23;20323;-73
2022/09/01 09:53:56;;;;;;;;;;;;;;;;;;6241340;23;19935;-74
2022/09/01 09:56:25;;;;;;;;;;;;;;;;;;6241571;23;19962;-73
2022/09/01 09:58:50;;;;;;;;;;;;;;;;;;6241679;23;20224;-74
2022/09/01 10:01:16;;;;;;;;;;;;;;;;;;6239376;23;19914;-74
2022/09/01 10:03:42;;;;;;;;;;;;;;;;;;6241213;23;19907;-73
2022/09/01 10:06:08;;;;;;;;;;;;;;;;;;6240755;23;19911;-73
2022/09/01 10:08:36;;;;;;;;;;;;;;;;;;6214686;23;19907;-74
2022/09/01 10:11:01;;;;;;;;;;;;;;;;;;6240667;23;19977;-74
2022/09/01 10:13:30;;;;;;;;;;;;;;;;;;6242383;23;20451;-74
2022/09/01 10:15:55;;;;;;;;;;;;;;;;;;6242176;23;19907;-74
2022/09/01 10:18:21;;;;;;;;;;;;;;;;;;6241365;23;19908;-74
2022/09/01 10:20:47;;;;;;;;;;;;;;;;;;6241284;23;20410;-74
2022/09/01 10:23:12;;;;;;;;;;;;;;;;;;6241091;23;20017;-74
2022/09/01 10:25:38;;;;;;;;;;;;;;;;;;6241110;23;19990;-73
2022/09/01 10:28:04;;;;;;;;;;;;;;;;;;6240677;23;19910;-73
2022/09/01 10:30:30;;;;;;;;;;;;;;;;;;6240834;23;19911;-74
2022/09/01 10:32:55;;;;;;;;;;;;;;;;;;6240769;22;20010;-74
2022/09/01 10:35:22;;;;;;;;;;;;;;;;;;6240167;23;19908;-73
2022/09/01 10:37:48;;;;;;;;;;;;;;;;;;6240091;23;19911;-73
2022/09/01 10:40:13;;;;;;;;;;;;;;;;;;6240867;23;20363;-73
2022/09/01 10:42:41;;;;;;;;;;;;;;;;;;6239086;23;19911;-73
2022/09/01 10:45:06;;;;;;;;;;;;;;;;;;6240559;23;19962;-73
2022/09/01 10:47:32;;;;;;;;;;;;;;;;;;6240805;23;19908;-74
2022/09/01 10:49:58;;;;;;;;;;;;;;;;;;6235178;23;19911;-74
2022/09/01 10:52:23;;;;;;;;;;;;;;;;;;6240600;23;19915;-73
2022/09/01 10:54:49;;;;;;;;;;;;;;;;;;6240559;23;19986;-73
2022/09/01 10:57:15;;;;;;;;;;;;;;;;;;6244977;23;19918;-73
2022/09/01 10:59:40;;;;;;;;;;;;;;;;;;6246892;23;19914;-74
2022/09/01 11:02:06;;;;;;;;;;;;;;;;;;6239697;23;19961;-74
2022/09/01 11:04:32;;;;;;;;;;;;;;;;;;6240585;23;19973;-75
2022/09/01 11:06:57;;;;;;;;;;;;;;;;;;6241316;23;20272;-72
2022/09/01 11:09:23;;;;;;;;;;;;;;;;;;6242102;23;20201;-73
2022/09/01 11:11:48;;;;;;;;;;;;;;;;;;6241018;23;19990;-72
2022/09/01 11:14:14;;;;;;;;;;;;;;;;;;6241568;23;19931;-73
2022/09/01 11:16:40;;;;;;;;;;;;;;;;;;6239055;23;20252;-74
2022/09/01 11:19:06;;;;;;;;;;;;;;;;;;6214186;23;20039;-74
2022/09/01 11:21:32;;;;;;;;;;;;;;;;;;6240151;23;19908;-74
2022/09/01 11:23:58;;;;;;;;;;;;;;;;;;6240720;23;19986;-74
2022/09/01 11:26:23;;;;;;;;;;;;;;;;;;6241430;23;20414;-73
2022/09/01 11:28:49;;;;;;;;;;;;;;;;;;6240239;23;19907;-74
2022/09/01 11:31:14;;;;;;;;;;;;;;;;;;6240991;22;20340;-73
2022/09/01 11:33:41;;;;;;;;;;;;;;;;;;6241905;23;19930;-73
2022/09/01 11:36:06;;;;;;;;;;;;;;;;;;6241589;23;19907;-74
2022/09/01 11:38:32;;;;;;;;;;;;;;;;;;6242277;23;19914;-74
2022/09/01 11:40:57;;;;;;;;;;;;;;;;;;6241341;23;19912;-74
2022/09/01 11:43:23;;;;;;;;;;;;;;;;;;6241686;23;19915;-73
2022/09/01 11:45:49;;;;;;;;;;;;;;;;;;6240972;23;19942;-73
2022/09/01 11:48:14;;;;;;;;;;;;;;;;;;6214338;23;19914;-74
2022/09/01 11:50:40;;;;;;;;;;;;;;;;;;6241203;23;20066;-74
2022/09/01 11:53:05;;;;;;;;;;;;;;;;;;6241455;23;19915;-74
2022/09/01 11:55:31;;;;;;;;;;;;;;;;;;6215051;23;19907;-74
2022/09/01 11:57:57;;;;;;;;;;;;;;;;;;6241650;23;20339;-74
2022/09/01 12:00:22;;;;;;;;;;;;;;;;;;6241472;23;19912;-74
2022/09/01 12:02:48;;;;;;;;;;;;;;;;;;6241596;23;19918;-73
2022/09/01 12:05:15;;;;;;;;;;;;;;;;;;6241161;23;19914;-73
2022/09/01 12:07:40;;;;;;;;;;;;;;;;;;6240706;23;19908;-73
2022/09/01 12:10:07;;;;;;;;;;;;;;;;;;6240957;23;20255;-73
2022/09/01 12:12:33;;;;;;;;;;;;;;;;;;6241370;23;19951;-74
2022/09/01 12:14:58;;;;;;;;;;;;;;;;;;6241111;23;19908;-75
2022/09/01 12:17:24;;;;;;;;;;;;;;;;;;6241445;23;19908;-74
2022/09/01 12:19:50;;;;;;;;;;;;;;;;;;6239565;23;19956;-74
2022/09/01 12:22:15;;;;;;;;;;;;;;;;;;6239686;23;20013;-74
2022/09/01 12:24:41;;;;;;;;;;;;;;;;;;6240719;23;19942;-74
2022/09/01 12:27:07;;;;;;;;;;;;;;;;;;6240969;23;19914;-73
2022/09/01 12:29:32;;;;;;;;;;;;;;;;;;6239781;23;19914;-74
2022/09/01 12:31:58;;;;;;;;;;;;;;;;;;6240444;22;19998;-74
2022/09/01 12:34:24;;;;;;;;;;;;;;;;;;6242097;23;20332;-74
2022/09/01 12:36:49;;;;;;;;;;;;;;;;;;6240221;23;19907;-73
2022/09/01 12:39:15;;;;;;;;;;;;;;;;;;6241585;23;19942;-74
2022/09/01 12:41:41;;;;;;;;;;;;;;;;;;6241547;23;19946;-73
2022/09/01 12:44:07;;;;;;;;;;;;;;;;;;6240439;23;19946;-74
2022/09/01 12:46:32;;;;;;;;;;;;;;;;;;6241415;23;19908;-73
2022/09/01 12:48:58;;;;;;;;;;;;;;;;;;6239443;23;19914;-76
2022/09/01 12:51:24;;;;;;;;;;;;;;;;;;6241418;23;20037;-72
2022/09/01 12:53:50;;;;;;;;;;;;;;;;;;6241179;23;19911;-73
2022/09/01 12:56:16;;;;;;;;;;;;;;;;;;6213846;23;19907;-73
2022/09/01 12:58:42;;;;;;;;;;;;;;;;;;6241350;23;19911;-72
2022/09/01 13:01:15;;;;;;;;;;;;;;;;;;6240977;23;19965;-72
2022/09/01 13:03:41;;;;;;;;;;;;;;;;;;6241023;23;19913;-73
2022/09/01 13:06:06;;;;;;;;;;;;;;;;;;6240338;23;19942;-71
2022/09/01 13:08:32;;;;;;;;;;;;;;;;;;6241515;23;20325;-73
2022/09/01 13:10:59;;;;;;;;;;;;;;;;;;6239184;23;19912;-72
2022/09/01 13:13:24;;;;;;;;;;;;;;;;;;6214428;23;19912;-72
2022/09/01 13:15:50;;;;;;;;;;;;;;;;;;6239189;23;19950;-73
2022/09/01 13:18:16;;;;;;;;;;;;;;;;;;6240855;23;19908;-72
2022/09/01 13:20:41;;;;;;;;;;;;;;;;;;6241038;23;19908;-71
2022/09/01 13:23:07;;;;;;;;;;;;;;;;;;6213808;23;19911;-73
2022/09/01 13:25:33;;;;;;;;;;;;;;;;;;6241182;23;19915;-73
2022/09/01 13:28:01;;;;;;;;;;;;;;;;;;6240845;23;19913;-74
2022/09/01 13:30:27;;;;;;;;;;;;;;;;;;6241019;23;19915;-75
2022/09/01 13:32:53;;;;;;;;;;;;;;;;;;6239174;22;19915;-74
2022/09/01 13:35:19;;;;;;;;;;;;;;;;;;6214390;23;19908;-74
2022/09/01 13:37:44;;;;;;;;;;;;;;;;;;6242897;23;19931;-73
2022/09/01 13:40:14;;;;;;;;;;;;;;;;;;6241517;23;19927;-74
2022/09/01 13:42:40;;;;;;;;;;;;;;;;;;6242700;23;19911;-73
2022/09/01 13:45:05;;;;;;;;;;;;;;;;;;6215400;23;20279;-73
2022/09/01 13:47:31;;;;;;;;;;;;;;;;;;6242918;23;19903;-74
2022/09/01 13:49:56;;;;;;;;;;;;;;;;;;6241153;23;19907;-73
2022/09/01 13:52:22;;;;;;;;;;;;;;;;;;6241879;23;19953;-73
2022/09/01 13:54:47;;;;;;;;;;;;;;;;;;6242527;23;19958;-73
2022/09/01 13:57:15;;;;;;;;;;;;;;;;;;6242472;23;20451;-74
2022/09/01 13:59:40;;;;;;;;;;;;;;;;;;6244419;23;19907;-74
2022/09/01 14:02:06;;;;;;;;;;;;;;;;;;6242523;23;19908;-73
2022/09/01 14:04:32;;;;;;;;;;;;;;;;;;6243003;23;20398;-74
2022/09/01 14:06:58;;;;;;;;;;;;;;;;;;6215803;23;19911;-72
2022/09/01 14:09:24;;;;;;;;;;;;;;;;;;6242720;23;19953;-74
2022/09/01 14:11:49;;;;;;;;;;;;;;;;;;6241851;23;19911;-75
2022/09/01 14:14:15;;;;;;;;;;;;;;;;;;6239877;23;20290;-74
2022/09/01 14:16:40;;;;;;;;;;;;;;;;;;6243470;23;19930;-78
2022/09/01 14:19:06;;;;;;;;;;;;;;;;;;6243140;23;19908;-75
2022/09/01 14:21:32;;;;;;;;;;;;;;;;;;6243159;23;20010;-71
2022/09/01 14:23:58;;;;;;;;;;;;;;;;;;6242466;23;19947;-70
2022/09/01 14:26:25;;;;;;;;;;;;;;;;;;6215430;23;19913;-70
2022/09/01 14:28:50;;;;;;;;;;;;;;;;;;6250609;23;19957;-75
2022/09/01 14:31:16;;;;;;;;;;;;;;;;;;6243466;22;20347;-76
2022/09/01 14:33:42;;;;;;;;;;;;;;;;;;6243439;23;19918;-77
2022/09/01 14:36:07;;;;;;;;;;;;;;;;;;6242860;23;19915;-74
2022/09/01 14:38:34;;;;;;;;;;;;;;;;;;6242650;23;19907;-73
2022/09/01 14:40:59;;;;;;;;;;;;;;;;;;6215131;23;20415;-73
2022/09/01 14:43:25;;;;;;;;;;;;;;;;;;6216136;23;19953;-72
2022/09/01 14:45:51;;;;;;;;;;;;;;;;;;6242402;23;19911;-71
2022/09/01 14:48:16;;;;;;;;;;;;;;;;;;6240979;23;20373;-72
2022/09/01 14:50:42;;;;;;;;;;;;;;;;;;6241482;23;19908;-71
2022/09/01 14:53:08;;;;;;;;;;;;;;;;;;6239116;23;20002;-75
2022/09/01 14:55:34;;;;;;;;;;;;;;;;;;6241733;23;19907;-72
2022/09/01 14:57:59;;;;;;;;;;;;;;;;;;6240877;23;19982;-71
2022/09/01 15:00:25;;;;;;;;;;;;;;;;;;6215512;23;19907;-72
2022/09/01 15:02:51;;;;;;;;;;;;;;;;;;6242432;23;19943;-71
2022/09/01 15:05:17;;;;;;;;;;;;;;;;;;6242505;23;20310;-71
2022/09/01 15:07:42;;;;;;;;;;;;;;;;;;6243001;23;19907;-71
2022/09/01 15:10:08;;;;;;;;;;;;;;;;;;6242398;23;19965;-70
2022/09/01 15:12:33;;;;;;;;;;;;;;;;;;6242532;23;19916;-71
2022/09/01 15:14:59;;;;;;;;;;;;;;;;;;6242524;23;19915;-71
2022/09/01 15:17:25;;;;;;;;;;;;;;;;;;6242260;23;20336;-72
2022/09/01 15:19:50;;;;;;;;;;;;;;;;;;6242137;23;19942;-72
2022/09/01 15:22:16;;;;;;;;;;;;;;;;;;6242313;23;20371;-74
2022/09/01 15:24:41;;;;;;;;;;;;;;;;;;6242226;23;19914;-72
2022/09/01 15:27:07;;;;;;;;;;;;;;;;;;6241843;23;19907;-73
2022/09/01 15:29:33;;;;;;;;;;;;;;;;;;6242643;23;19908;-73
2022/09/01 15:32:00;;;;;;;;;;;;;;;;;;6242297;22;19911;-74
2022/09/01 15:34:25;;;;;;;;;;;;;;;;;;6242151;23;19907;-74
2022/09/01 15:36:51;;;;;;;;;;;;;;;;;;6242541;23;19914;-73
2022/09/01 15:39:17;;;;;;;;;;;;;;;;;;6241814;23;19907;-71
2022/09/01 15:41:42;;;;;;;;;;;;;;;;;;6242350;23;19907;-71
2022/09/01 15:44:09;;;;;;;;;;;;;;;;;;6214121;23;20310;-70
2022/09/01 15:46:35;;;;;;;;;;;;;;;;;;6242147;23;19915;-70
2022/09/01 15:49:00;;;;;;;;;;;;;;;;;;6242408;23;19907;-70
2022/09/01 15:51:26;;;;;;;;;;;;;;;;;;6241915;23;19911;-71
2022/09/01 15:53:52;;;;;;;;;;;;;;;;;;6242432;23;19916;-71
2022/09/01 15:56:17;;;;;;;;;;;;;;;;;;6241958;23;20306;-71
2022/09/01 15:58:43;;;;;;;;;;;;;;;;;;6242291;23;19987;-71
2022/09/01 16:01:09;;;;;;;;;;;;;;;;;;6190525;23;20316;-71
2022/09/01 16:03:34;;;;;;;;;;;;;;;;;;6242785;23;19982;-70
2022/09/01 16:06:00;;;;;;;;;;;;;;;;;;6242652;23;20265;-71
2022/09/01 16:08:25;;;;;;;;;;;;;;;;;;6242806;23;19915;-71
2022/09/01 16:10:51;;;;;;;;;;;;;;;;;;6242480;23;19935;-72
2022/09/01 16:13:16;;;;;;;;;;;;;;;;;;6242251;23;20336;-71
2022/09/01 16:15:42;;;;;;;;;;;;;;;;;;6242556;23;19908;-71
2022/09/01 16:18:08;;;;;;;;;;;;;;;;;;6242161;23;19912;-71
2022/09/01 16:20:34;;;;;;;;;;;;;;;;;;6215540;23;19911;-71
2022/09/01 16:23:00;;;;;;;;;;;;;;;;;;6242073;23;19908;-71
2022/09/01 16:25:26;;;;;;;;;;;;;;;;;;6242047;23;19915;-71
2022/09/01 16:27:52;;;;;;;;;;;;;;;;;;6242101;23;20059;-71
2022/09/01 16:30:18;;;;;;;;;;;;;;;;;;6240132;23;19922;-71
2022/09/01 16:32:44;;;;;;;;;;;;;;;;;;6241546;22;19916;-71
2022/09/01 16:35:09;;;;;;;;;;;;;;;;;;6242292;23;19907;-71
2022/09/01 16:37:35;;;;;;;;;;;;;;;;;;6241940;23;19907;-72
2022/09/01 16:40:00;;;;;;;;;;;;;;;;;;6242012;23;19953;-71
2022/09/01 16:42:26;;;;;;;;;;;;;;;;;;6241656;23;19914;-70
2022/09/01 16:44:52;;;;;;;;;;;;;;;;;;6241776;23;19982;-70
2022/09/01 16:47:17;;;;;;;;;;;;;;;;;;6241744;23;19918;-71
2022/09/01 16:49:43;;;;;;;;;;;;;;;;;;6242293;23;19922;-71
2022/09/01 16:52:09;;;;;;;;;;;;;;;;;;6241511;23;19950;-71